createdAt,value
2023-03-20T00:00:44.737Z,81.00
2023-03-20T00:02:44.609Z,81.00
2023-03-20T00:04:44.629Z,81.00
2023-03-20T00:06:44.627Z,81.00
2023-03-20T00:08:44.691Z,81.00
2023-03-20T00:10:44.627Z,81.00
2023-03-20T00:12:44.598Z,81.00
2023-03-20T00:14:44.647Z,81.00
2023-03-20T00:16:44.634Z,81.00
2023-03-20T00:18:44.622Z,81.00
2023-03-20T00:20:44.611Z,81.00
2023-03-20T00:23:14.695Z,81.00
2023-03-20T00:25:14.619Z,81.00
2023-03-20T00:27:14.615Z,81.00
2023-03-20T00:29:14.628Z,81.00
2023-03-20T00:31:14.707Z,81.00
2023-03-20T00:33:14.713Z,81.00
2023-03-20T00:35:14.654Z,81.00
2023-03-20T00:37:14.620Z,81.00
2023-03-20T00:39:14.649Z,81.00
2023-03-20T00:41:14.621Z,81.00
2023-03-20T00:43:14.651Z,81.00
2023-03-20T00:45:14.642Z,81.00
2023-03-20T00:47:14.630Z,81.00
2023-03-20T00:49:14.640Z,81.00
2023-03-20T00:51:14.652Z,81.00
2023-03-20T00:53:14.718Z,81.00
2023-03-20T00:55:14.749Z,81.00
2023-03-20T00:57:14.669Z,81.00
2023-03-20T00:59:14.689Z,81.00
2023-03-20T01:01:14.679Z,81.00
2023-03-20T01:03:14.644Z,81.00
2023-03-20T01:05:14.708Z,81.00
2023-03-20T01:07:14.698Z,81.00
2023-03-20T01:09:14.768Z,81.00
2023-03-20T01:11:14.748Z,81.00
2023-03-20T01:13:14.654Z,81.00
2023-03-20T01:15:14.667Z,81.00
2023-03-20T01:17:14.681Z,81.00
2023-03-20T01:19:14.640Z,81.00
2023-03-20T01:21:14.631Z,81.00
2023-03-20T01:23:14.651Z,81.00
2023-03-20T01:25:14.766Z,81.00
2023-03-20T01:27:14.654Z,81.00
2023-03-20T01:29:14.657Z,81.00
2023-03-20T01:31:14.664Z,81.00
2023-03-20T01:33:14.704Z,81.00
2023-03-20T01:35:14.723Z,81.00
2023-03-20T01:37:14.679Z,81.00
2023-03-20T01:39:14.746Z,81.00
2023-03-20T01:41:14.703Z,81.00
2023-03-20T01:43:14.662Z,81.00
2023-03-20T01:45:14.688Z,81.00
2023-03-20T01:47:14.679Z,81.00
2023-03-20T01:49:14.655Z,82.00
2023-03-20T01:51:14.689Z,82.00
2023-03-20T01:53:14.740Z,82.00
2023-03-20T01:55:14.672Z,82.00
2023-03-20T01:57:14.776Z,82.00
2023-03-20T01:59:14.762Z,82.00
2023-03-20T02:01:14.792Z,82.00
2023-03-20T02:03:14.701Z,82.00
2023-03-20T02:05:14.677Z,82.00
2023-03-20T02:07:14.691Z,82.00
2023-03-20T02:09:14.766Z,82.00
2023-03-20T02:11:14.698Z,82.00
2023-03-20T02:13:14.685Z,82.00
2023-03-20T02:15:14.727Z,82.00
2023-03-20T02:17:15.758Z,82.00
2023-03-20T02:19:14.755Z,82.00
2023-03-20T02:21:44.692Z,82.00
2023-03-20T02:23:44.713Z,82.00
2023-03-20T02:25:44.701Z,82.00
2023-03-20T02:27:44.707Z,82.00
2023-03-20T02:29:44.704Z,82.00
2023-03-20T02:31:44.718Z,82.00
2023-03-20T02:33:44.784Z,82.00
2023-03-20T02:35:44.780Z,82.00
2023-03-20T02:37:44.706Z,82.00
2023-03-20T02:39:44.718Z,82.00
2023-03-20T02:41:44.720Z,82.00
2023-03-20T02:43:44.721Z,82.00
2023-03-20T02:45:44.766Z,82.00
2023-03-20T02:47:44.697Z,82.00
2023-03-20T02:49:44.778Z,82.00
2023-03-20T02:51:44.680Z,82.00
2023-03-20T02:53:45.000Z,82.00
2023-03-20T02:55:44.711Z,82.00
2023-03-20T02:57:44.723Z,82.00
2023-03-20T02:59:44.708Z,82.00
2023-03-20T03:01:44.753Z,82.00
2023-03-20T03:03:44.733Z,82.00
2023-03-20T03:05:44.721Z,82.00
2023-03-20T03:07:44.822Z,82.00
2023-03-20T03:09:44.821Z,82.00
2023-03-20T03:11:44.747Z,82.00
2023-03-20T03:13:44.907Z,82.00
2023-03-20T03:15:44.801Z,82.00
2023-03-20T03:17:44.741Z,82.00
2023-03-20T03:19:44.728Z,82.00
2023-03-20T03:21:44.722Z,82.00
2023-03-20T03:23:44.855Z,82.00
2023-03-20T03:25:44.714Z,82.00
2023-03-20T03:27:44.815Z,82.00
2023-03-20T03:29:44.723Z,82.00
2023-03-20T03:31:44.834Z,82.00
2023-03-20T03:33:44.754Z,82.00
2023-03-20T03:35:44.792Z,82.00
2023-03-20T03:37:44.761Z,82.00
2023-03-20T03:39:44.764Z,82.00
2023-03-20T03:41:44.717Z,82.00
2023-03-20T03:43:44.741Z,82.00
2023-03-20T03:45:44.749Z,82.00
2023-03-20T03:47:44.773Z,82.00
2023-03-20T03:49:44.740Z,82.00
2023-03-20T03:51:44.733Z,82.00
2023-03-20T03:53:45.423Z,82.00
2023-03-20T03:55:44.816Z,82.00
2023-03-20T03:57:44.909Z,82.00
2023-03-20T03:59:44.747Z,82.00
2023-03-20T04:01:44.765Z,82.00
2023-03-20T04:03:44.756Z,82.00
2023-03-20T04:05:44.743Z,82.00
2023-03-20T04:07:44.770Z,82.00
2023-03-20T04:09:44.849Z,82.00
2023-03-20T04:11:44.746Z,82.00
2023-03-20T04:13:44.872Z,82.00
2023-03-20T04:15:44.846Z,82.00
2023-03-20T04:17:44.791Z,82.00
2023-03-20T04:20:14.822Z,82.00
2023-03-20T04:22:14.841Z,82.00
2023-03-20T04:24:14.843Z,82.00
2023-03-20T04:26:14.766Z,82.00
2023-03-20T04:28:14.885Z,82.00
2023-03-20T04:32:14.787Z,82.00
2023-03-20T04:36:00.095Z,82.00
2023-03-20T04:38:00.006Z,82.00
2023-03-20T04:40:00.064Z,82.00
2023-03-20T04:42:00.012Z,82.00
2023-03-20T04:44:00.149Z,82.00
2023-03-20T04:46:00.116Z,82.00
2023-03-20T04:48:00.036Z,82.00
2023-03-20T04:50:00.047Z,82.00
2023-03-20T04:52:00.053Z,82.00
2023-03-20T04:54:00.042Z,82.00
2023-03-20T04:56:01.953Z,82.00
2023-03-20T04:58:00.098Z,82.00
2023-03-20T05:00:00.125Z,82.00
2023-03-20T05:02:00.066Z,82.00
2023-03-20T05:04:00.173Z,82.00
2023-03-20T05:06:00.035Z,82.00
2023-03-20T05:08:00.022Z,82.00
2023-03-20T05:10:00.174Z,82.00
2023-03-20T05:12:00.090Z,82.00
2023-03-20T05:14:00.104Z,82.00
2023-03-20T05:16:00.076Z,82.00
2023-03-20T05:18:00.035Z,82.00
2023-03-20T05:20:30.042Z,82.00
2023-03-20T05:22:30.100Z,82.00
2023-03-20T05:24:30.192Z,82.00
2023-03-20T05:26:30.168Z,82.00
2023-03-20T05:28:30.038Z,82.00
2023-03-20T05:30:30.101Z,82.00
2023-03-20T05:32:30.081Z,82.00
2023-03-20T05:34:30.091Z,82.00
2023-03-20T05:36:30.103Z,81.00
2023-03-20T05:38:30.106Z,81.00
2023-03-20T05:40:30.034Z,81.00
2023-03-20T05:42:30.134Z,81.00
2023-03-20T05:44:30.293Z,81.00
2023-03-20T05:46:30.099Z,81.00
2023-03-20T05:48:30.060Z,81.00
2023-03-20T05:50:30.100Z,81.00
2023-03-20T05:52:30.109Z,81.00
2023-03-20T05:54:30.150Z,81.00
2023-03-20T05:56:30.058Z,81.00
2023-03-20T05:58:30.163Z,81.00
2023-03-20T06:00:30.306Z,81.00
2023-03-20T06:02:30.132Z,80.00
2023-03-20T06:04:30.123Z,81.00
2023-03-20T06:06:30.120Z,81.00
2023-03-20T06:08:30.169Z,81.00
2023-03-20T06:10:30.165Z,80.00
2023-03-20T06:12:30.068Z,80.00
2023-03-20T06:14:30.073Z,80.00
2023-03-20T06:16:30.202Z,80.00
2023-03-20T06:18:30.154Z,80.00
2023-03-20T06:20:30.119Z,80.00
2023-03-20T06:22:30.068Z,80.00
2023-03-20T06:24:30.089Z,80.00
2023-03-20T06:26:30.084Z,80.00
2023-03-20T06:28:30.186Z,80.00
2023-03-20T06:30:30.122Z,80.00
2023-03-20T06:32:30.214Z,81.00
2023-03-20T06:34:30.102Z,81.00
2023-03-20T06:36:30.136Z,81.00
2023-03-20T06:38:30.101Z,81.00
2023-03-20T06:40:30.181Z,81.00
2023-03-20T06:42:30.080Z,81.00
2023-03-20T06:44:30.088Z,81.00
2023-03-20T06:46:30.113Z,81.00
2023-03-20T06:48:30.097Z,81.00
2023-03-20T06:50:30.096Z,81.00
2023-03-20T06:52:30.078Z,81.00
2023-03-20T06:54:30.174Z,81.00
2023-03-20T06:56:30.121Z,81.00
2023-03-20T06:58:30.119Z,81.00
2023-03-20T07:00:30.464Z,81.00
2023-03-20T07:02:30.104Z,81.00
2023-03-20T07:04:30.160Z,81.00
2023-03-20T07:06:30.136Z,81.00
2023-03-20T07:08:30.078Z,80.00
2023-03-20T07:10:30.196Z,80.00
2023-03-20T07:12:30.117Z,80.00
2023-03-20T07:14:30.130Z,80.00
2023-03-20T07:17:00.205Z,80.00
2023-03-20T07:19:00.146Z,80.00
2023-03-20T07:21:00.146Z,80.00
2023-03-20T07:23:00.101Z,80.00
2023-03-20T07:25:00.154Z,80.00
2023-03-20T07:27:00.109Z,80.00
2023-03-20T07:29:00.131Z,80.00
2023-03-20T07:31:00.134Z,79.00
2023-03-20T07:33:00.323Z,79.00
2023-03-20T07:35:00.144Z,79.00
2023-03-20T07:37:00.172Z,79.00
2023-03-20T07:39:00.167Z,79.00
2023-03-20T07:41:00.141Z,79.00
2023-03-20T07:43:00.121Z,79.00
2023-03-20T07:45:00.151Z,79.00
2023-03-20T07:47:00.139Z,79.00
2023-03-20T07:49:00.142Z,78.00
2023-03-20T07:51:00.189Z,77.00
2023-03-20T07:53:00.169Z,77.00
2023-03-20T07:55:00.143Z,77.00
2023-03-20T07:57:00.134Z,77.00
2023-03-20T07:59:00.136Z,77.00
2023-03-20T08:01:00.128Z,76.00
2023-03-20T08:03:00.300Z,76.00
2023-03-20T08:05:00.182Z,76.00
2023-03-20T08:07:00.135Z,76.00
2023-03-20T08:09:00.168Z,76.00
2023-03-20T08:11:00.162Z,76.00
2023-03-20T08:13:00.173Z,75.00
2023-03-20T08:15:00.143Z,75.00
2023-03-20T08:17:13.606Z,75.00
2023-03-20T08:19:00.180Z,75.00
2023-03-20T08:21:00.176Z,75.00
2023-03-20T08:23:00.179Z,75.00
2023-03-20T08:25:00.186Z,74.00
2023-03-20T08:27:00.183Z,74.00
2023-03-20T08:29:00.186Z,74.00
2023-03-20T08:31:00.187Z,74.00
2023-03-20T08:33:00.188Z,73.00
2023-03-20T08:35:00.165Z,72.00
2023-03-20T08:37:00.186Z,72.00
2023-03-20T08:39:00.188Z,72.00
2023-03-20T08:41:00.206Z,72.00
2023-03-20T08:43:00.218Z,71.00
2023-03-20T08:45:00.175Z,71.00
2023-03-20T08:47:00.188Z,71.00
2023-03-20T08:49:00.158Z,71.00
2023-03-20T08:51:00.207Z,72.00
2023-03-20T08:53:00.484Z,72.00
2023-03-20T08:55:00.174Z,72.00
2023-03-20T08:57:00.185Z,72.00
2023-03-20T08:59:00.154Z,72.00
2023-03-20T09:01:00.181Z,71.00
2023-03-20T09:03:00.343Z,72.00
2023-03-20T09:05:00.182Z,72.00
2023-03-20T09:07:00.181Z,71.00
2023-03-20T09:09:00.177Z,71.00
2023-03-20T09:11:00.187Z,70.00
2023-03-20T09:13:00.264Z,70.00
2023-03-20T09:15:00.193Z,70.00
2023-03-20T09:17:30.182Z,70.00
2023-03-20T09:19:31.731Z,70.00
2023-03-20T09:21:30.219Z,70.00
2023-03-20T09:23:30.197Z,69.00
2023-03-20T09:25:30.228Z,69.00
2023-03-20T09:27:30.218Z,69.00
2023-03-20T09:29:30.232Z,69.00
2023-03-20T09:31:30.296Z,69.00
2023-03-20T09:33:30.193Z,69.00
2023-03-20T09:35:30.229Z,68.00
2023-03-20T09:37:30.195Z,68.00
2023-03-20T09:39:30.197Z,68.00
2023-03-20T09:41:30.183Z,68.00
2023-03-20T09:43:30.293Z,67.00
2023-03-20T09:45:30.213Z,67.00
2023-03-20T09:47:30.188Z,67.00
2023-03-20T09:49:30.916Z,66.00
2023-03-20T09:51:30.221Z,66.00
2023-03-20T09:53:30.206Z,66.00
2023-03-20T09:55:30.230Z,66.00
2023-03-20T09:57:30.251Z,66.00
2023-03-20T09:59:30.229Z,66.00
2023-03-20T10:01:30.266Z,66.00
2023-03-20T10:03:30.344Z,64.00
2023-03-20T10:05:30.253Z,64.00
2023-03-20T10:07:30.249Z,64.00
2023-03-20T10:09:30.281Z,63.00
2023-03-20T10:11:30.244Z,63.00
2023-03-20T10:13:30.208Z,63.00
2023-03-20T10:15:30.306Z,62.00
2023-03-20T10:17:30.252Z,62.00
2023-03-20T10:19:30.233Z,62.00
2023-03-20T10:21:30.303Z,62.00
2023-03-20T10:23:30.239Z,62.00
2023-03-20T10:25:30.310Z,62.00
2023-03-20T10:27:30.374Z,63.00
2023-03-20T10:29:30.225Z,63.00
2023-03-20T10:31:30.313Z,63.00
2023-03-20T10:33:30.253Z,63.00
2023-03-20T10:35:30.276Z,63.00
2023-03-20T10:37:30.337Z,64.00
2023-03-20T10:39:30.254Z,64.00
2023-03-20T10:41:30.267Z,64.00
2023-03-20T10:43:30.244Z,64.00
2023-03-20T10:45:30.325Z,64.00
2023-03-20T10:47:30.389Z,64.00
2023-03-20T10:49:30.277Z,64.00
2023-03-20T10:51:30.281Z,64.00
2023-03-20T10:53:30.271Z,64.00
2023-03-20T10:55:30.283Z,63.00
2023-03-20T10:57:30.267Z,64.00
2023-03-20T10:59:30.246Z,66.00
2023-03-20T11:01:30.326Z,66.00
2023-03-20T11:03:30.432Z,66.00
2023-03-20T11:05:30.265Z,66.00
2023-03-20T11:07:30.271Z,66.00
2023-03-20T11:09:30.312Z,66.00
2023-03-20T11:11:30.312Z,66.00
2023-03-20T11:14:00.357Z,67.00
2023-03-20T11:16:00.283Z,67.00
2023-03-20T11:18:00.389Z,66.00
2023-03-20T11:20:00.408Z,66.00
2023-03-20T11:22:00.329Z,66.00
2023-03-20T11:24:00.341Z,66.00
2023-03-20T11:26:00.356Z,67.00
2023-03-20T11:28:00.297Z,67.00
2023-03-20T11:30:00.286Z,67.00
2023-03-20T11:32:00.367Z,67.00
2023-03-20T11:36:00.430Z,67.00
2023-03-20T11:40:00.326Z,67.00
2023-03-20T11:42:00.376Z,68.00
2023-03-20T11:46:00.439Z,68.00
2023-03-20T11:49:44.950Z,67.00
2023-03-20T11:51:45.077Z,67.00
2023-03-20T11:53:47.938Z,67.00
2023-03-20T11:55:44.969Z,67.00
2023-03-20T11:57:47.299Z,67.00
2023-03-20T11:59:45.018Z,68.00
2023-03-20T12:01:45.010Z,68.00
2023-03-20T12:03:45.122Z,68.00
2023-03-20T12:05:44.988Z,68.00
2023-03-20T12:07:44.975Z,68.00
2023-03-20T12:10:16.086Z,68.00
2023-03-20T12:12:14.987Z,68.00
2023-03-20T12:14:15.020Z,68.00
2023-03-20T12:16:15.036Z,68.00
2023-03-20T12:18:14.989Z,68.00
2023-03-20T12:20:15.112Z,68.00
2023-03-20T12:22:15.043Z,68.00
2023-03-20T12:24:14.996Z,68.00
2023-03-20T12:26:15.046Z,68.00
2023-03-20T12:28:14.977Z,68.00
2023-03-20T12:30:15.054Z,68.00
2023-03-20T12:32:15.028Z,68.00
2023-03-20T12:34:15.077Z,68.00
2023-03-20T12:36:15.123Z,68.00
2023-03-20T12:38:15.088Z,67.00
2023-03-20T12:40:15.103Z,67.00
2023-03-20T12:42:15.118Z,67.00
2023-03-20T12:44:15.095Z,67.00
2023-03-20T12:46:15.239Z,67.00
2023-03-20T12:48:15.019Z,67.00
2023-03-20T12:50:15.024Z,67.00
2023-03-20T12:52:14.990Z,67.00
2023-03-20T12:54:15.022Z,67.00
2023-03-20T12:56:15.036Z,67.00
2023-03-20T12:58:15.148Z,67.00
2023-03-20T13:00:15.005Z,66.00
2023-03-20T13:02:15.045Z,66.00
2023-03-20T13:04:15.047Z,66.00
2023-03-20T13:06:15.063Z,66.00
2023-03-20T13:08:15.023Z,66.00
2023-03-20T13:10:15.023Z,66.00
2023-03-20T13:12:15.044Z,67.00
2023-03-20T13:14:15.035Z,66.00
2023-03-20T13:16:15.150Z,66.00
2023-03-20T13:18:15.074Z,66.00
2023-03-20T13:20:15.060Z,66.00
2023-03-20T13:22:15.117Z,66.00
2023-03-20T13:24:15.159Z,66.00
2023-03-20T13:26:15.519Z,66.00
2023-03-20T13:28:15.137Z,66.00
2023-03-20T13:30:15.096Z,66.00
2023-03-20T13:32:15.208Z,65.00
2023-03-20T13:34:15.048Z,65.00
2023-03-20T13:36:15.213Z,65.00
2023-03-20T13:38:15.124Z,65.00
2023-03-20T13:40:15.183Z,65.00
2023-03-20T13:42:15.252Z,65.00
2023-03-20T13:44:15.138Z,66.00
2023-03-20T13:46:15.151Z,66.00
2023-03-20T13:48:15.222Z,65.00
2023-03-20T13:50:15.193Z,65.00
2023-03-20T13:52:15.185Z,65.00
2023-03-20T13:54:15.070Z,65.00
2023-03-20T13:56:15.157Z,64.00
2023-03-20T13:58:15.091Z,63.00
2023-03-20T14:00:15.315Z,64.00
2023-03-20T14:02:15.185Z,64.00
2023-03-20T14:04:15.175Z,64.00
2023-03-20T14:06:15.125Z,64.00
2023-03-20T14:08:45.121Z,65.00
2023-03-20T14:10:45.166Z,64.00
2023-03-20T14:12:45.059Z,64.00
2023-03-20T14:14:45.074Z,64.00
2023-03-20T14:16:45.103Z,64.00
2023-03-20T14:18:45.078Z,64.00
2023-03-20T14:20:45.099Z,65.00
2023-03-20T14:22:45.294Z,65.00
2023-03-20T14:24:45.078Z,64.00
2023-03-20T14:26:45.084Z,65.00
2023-03-20T14:28:45.081Z,65.00
2023-03-20T14:30:45.059Z,65.00
2023-03-20T14:32:45.135Z,65.00
2023-03-20T14:34:45.080Z,65.00
2023-03-20T14:36:45.146Z,64.00
2023-03-20T14:38:45.112Z,65.00
2023-03-20T14:40:45.072Z,65.00
2023-03-20T14:42:45.180Z,65.00
2023-03-20T14:44:45.124Z,65.00
2023-03-20T14:46:45.210Z,65.00
2023-03-20T14:48:45.124Z,65.00
2023-03-20T14:50:45.358Z,65.00
2023-03-20T14:52:45.101Z,63.00
2023-03-20T14:54:45.098Z,63.00
2023-03-20T14:56:45.075Z,63.00
2023-03-20T14:58:45.132Z,63.00
2023-03-20T15:00:45.124Z,63.00
2023-03-20T15:02:45.148Z,63.00
2023-03-20T15:04:45.102Z,63.00
2023-03-20T15:06:45.103Z,63.00
2023-03-20T15:08:45.113Z,64.00
2023-03-20T15:10:45.189Z,64.00
2023-03-20T15:12:45.194Z,64.00
2023-03-20T15:14:45.170Z,64.00
2023-03-20T15:16:45.267Z,64.00
2023-03-20T15:18:45.139Z,64.00
2023-03-20T15:20:45.120Z,64.00
2023-03-20T15:22:45.122Z,64.00
2023-03-20T15:24:45.123Z,64.00
2023-03-20T15:26:45.204Z,64.00
2023-03-20T15:28:45.217Z,64.00
2023-03-20T15:30:45.227Z,64.00
2023-03-20T15:32:45.363Z,64.00
2023-03-20T15:34:45.130Z,64.00
2023-03-20T15:36:45.228Z,65.00
2023-03-20T15:38:45.170Z,65.00
2023-03-20T15:40:50.966Z,65.00
2023-03-20T15:42:45.149Z,66.00
2023-03-20T15:44:45.235Z,66.00
2023-03-20T15:46:45.140Z,66.00
2023-03-20T15:48:45.140Z,66.00
2023-03-20T15:50:45.166Z,66.00
2023-03-20T15:52:45.271Z,66.00
2023-03-20T15:54:45.176Z,66.00
2023-03-20T15:56:45.462Z,66.00
2023-03-20T15:58:45.232Z,66.00
2023-03-20T16:00:45.251Z,66.00
2023-03-20T16:02:47.855Z,66.00
2023-03-20T16:05:15.164Z,66.00
2023-03-20T16:07:15.238Z,66.00
2023-03-20T16:09:15.199Z,66.00
2023-03-20T16:11:15.159Z,66.00
2023-03-20T16:13:15.153Z,66.00
2023-03-20T16:15:15.235Z,66.00
2023-03-20T16:17:15.180Z,66.00
2023-03-20T16:19:15.286Z,66.00
2023-03-20T16:21:15.182Z,66.00
2023-03-20T16:23:15.237Z,67.00
2023-03-20T16:25:15.176Z,67.00
2023-03-20T16:27:15.241Z,67.00
2023-03-20T16:29:15.265Z,67.00
2023-03-20T16:31:15.167Z,67.00
2023-03-20T16:33:15.212Z,67.00
2023-03-20T16:37:15.188Z,67.00
2023-03-20T16:39:16.258Z,67.00
2023-03-20T16:41:15.166Z,67.00
2023-03-20T16:43:15.152Z,67.00
2023-03-20T16:45:15.172Z,67.00
2023-03-20T16:47:15.191Z,67.00
2023-03-20T16:49:15.159Z,67.00
2023-03-20T16:51:15.184Z,67.00
2023-03-20T16:53:15.171Z,68.00
2023-03-20T16:55:15.307Z,68.00
2023-03-20T16:57:15.254Z,68.00
2023-03-20T16:59:15.175Z,68.00
2023-03-20T17:01:15.324Z,68.00
2023-03-20T17:03:15.224Z,68.00
2023-03-20T17:05:15.328Z,69.00
2023-03-20T17:07:15.191Z,69.00
2023-03-20T17:09:15.249Z,69.00
2023-03-20T17:11:15.176Z,69.00
2023-03-20T17:13:15.201Z,69.00
2023-03-20T17:15:15.191Z,69.00
2023-03-20T17:17:16.062Z,69.00
2023-03-20T17:19:15.221Z,69.00
2023-03-20T17:21:15.233Z,69.00
2023-03-20T17:23:15.192Z,69.00
2023-03-20T17:25:15.215Z,69.00
2023-03-20T17:27:15.208Z,69.00
2023-03-20T17:29:15.189Z,69.00
2023-03-20T17:31:15.292Z,69.00
2023-03-20T17:33:15.438Z,70.00
2023-03-20T17:35:15.251Z,70.00
2023-03-20T17:37:15.216Z,70.00
2023-03-20T17:39:15.256Z,70.00
2023-03-20T17:41:15.214Z,70.00
2023-03-20T17:43:15.291Z,70.00
2023-03-20T17:45:15.308Z,70.00
2023-03-20T17:47:15.221Z,70.00
2023-03-20T17:49:15.208Z,70.00
2023-03-20T17:51:15.212Z,70.00
2023-03-20T17:53:15.244Z,70.00
2023-03-20T17:55:15.294Z,71.00
2023-03-20T17:57:15.234Z,71.00
2023-03-20T17:59:45.216Z,71.00
2023-03-20T18:01:45.294Z,71.00
2023-03-20T18:03:45.337Z,71.00
2023-03-20T18:05:45.250Z,71.00
2023-03-20T18:07:45.415Z,71.00
2023-03-20T18:09:45.263Z,71.00
2023-03-20T18:11:46.848Z,72.00
2023-03-20T18:13:45.277Z,72.00
2023-03-20T18:15:45.316Z,71.00
2023-03-20T18:17:45.294Z,71.00
2023-03-20T18:19:45.218Z,71.00
2023-03-20T18:21:45.230Z,71.00
2023-03-20T18:23:45.253Z,71.00
2023-03-20T18:25:45.275Z,71.00
2023-03-20T18:27:45.293Z,71.00
2023-03-20T18:29:45.244Z,71.00
2023-03-20T18:31:45.410Z,71.00
2023-03-20T18:33:45.341Z,71.00
2023-03-20T18:35:45.451Z,71.00
2023-03-20T18:37:45.293Z,71.00
2023-03-20T18:39:26.291Z,71.00
2023-03-20T18:41:56.314Z,71.00
2023-03-20T18:43:56.367Z,71.00
2023-03-20T18:45:56.298Z,71.00
2023-03-20T18:47:56.338Z,71.00
2023-03-20T18:49:56.303Z,71.00
2023-03-20T18:51:56.410Z,71.00
2023-03-20T18:53:56.290Z,71.00
2023-03-20T18:55:56.370Z,71.00
2023-03-20T18:57:56.340Z,71.00
2023-03-20T18:59:56.325Z,71.00
2023-03-20T19:01:56.368Z,71.00
2023-03-20T19:03:56.446Z,71.00
2023-03-20T19:05:56.313Z,71.00
2023-03-20T19:07:56.351Z,72.00
2023-03-20T19:09:56.307Z,72.00
2023-03-20T19:11:56.398Z,72.00
2023-03-20T19:13:56.350Z,72.00
2023-03-20T19:15:56.463Z,72.00
2023-03-20T19:17:56.318Z,72.00
2023-03-20T19:19:56.435Z,72.00
2023-03-20T19:21:56.331Z,72.00
2023-03-20T19:23:56.377Z,72.00
2023-03-20T19:25:56.616Z,72.00
2023-03-20T19:27:56.391Z,72.00
2023-03-20T19:29:56.421Z,72.00
2023-03-20T19:31:56.495Z,72.00
2023-03-20T19:33:56.316Z,72.00
2023-03-20T19:36:02.714Z,72.00
2023-03-20T19:37:56.330Z,72.00
2023-03-20T19:39:56.372Z,72.00
2023-03-20T19:41:56.386Z,72.00
2023-03-20T19:43:56.521Z,72.00
2023-03-20T19:45:58.813Z,72.00
2023-03-20T19:47:57.377Z,72.00
2023-03-20T19:49:56.402Z,72.00
2023-03-20T19:51:56.328Z,72.00
2023-03-20T19:53:56.416Z,72.00
2023-03-20T19:55:56.387Z,72.00
2023-03-20T19:57:56.403Z,72.00
2023-03-20T20:00:26.682Z,72.00
2023-03-20T20:01:56.539Z,72.00
2023-03-20T20:03:56.492Z,72.00
2023-03-20T20:05:56.605Z,72.00
2023-03-20T20:08:22.512Z,72.00
2023-03-20T20:09:56.462Z,72.00
2023-03-20T20:11:56.396Z,72.00
2023-03-20T20:14:08.483Z,72.00
2023-03-20T20:15:56.521Z,72.00
2023-03-20T20:17:56.456Z,72.00
2023-03-20T20:19:56.394Z,72.00
2023-03-20T20:22:26.044Z,72.00
2023-03-20T20:23:56.364Z,72.00
2023-03-20T20:25:56.415Z,72.00
2023-03-20T20:27:56.423Z,72.00
2023-03-20T20:31:57.447Z,72.00
2023-03-20T20:37:21.033Z,71.00
2023-03-20T20:38:48.269Z,71.00
2023-03-20T20:40:26.411Z,71.00
2023-03-20T20:42:26.466Z,71.00
2023-03-20T20:44:26.556Z,71.00
2023-03-20T20:46:26.616Z,71.00
2023-03-20T20:48:26.486Z,71.00
2023-03-20T20:50:28.227Z,71.00
2023-03-20T20:52:26.418Z,71.00
2023-03-20T20:54:26.418Z,71.00
2023-03-20T20:56:26.427Z,71.00
2023-03-20T20:58:26.467Z,71.00
2023-03-20T21:00:41.364Z,71.00
2023-03-20T21:02:26.517Z,71.00
2023-03-20T21:04:26.573Z,71.00
2023-03-20T21:06:50.585Z,71.00
2023-03-20T21:08:26.427Z,71.00
2023-03-20T21:10:26.501Z,71.00
2023-03-20T21:12:36.317Z,71.00
2023-03-20T21:14:26.448Z,72.00
2023-03-20T21:16:26.499Z,72.00
2023-03-20T21:18:26.497Z,72.00
2023-03-20T21:20:26.542Z,72.00
2023-03-20T21:22:26.483Z,72.00
2023-03-20T21:24:33.093Z,72.00
2023-03-20T21:26:26.446Z,72.00
2023-03-20T21:28:26.476Z,72.00
2023-03-20T21:30:26.474Z,72.00
2023-03-20T21:32:26.529Z,72.00
2023-03-20T21:34:26.396Z,72.00
2023-03-20T21:36:27.797Z,72.00
2023-03-20T21:40:26.400Z,71.00
2023-03-20T21:42:26.438Z,71.00
2023-03-20T21:45:05.719Z,71.00
2023-03-20T21:47:12.689Z,71.00
2023-03-20T21:49:10.019Z,71.00
2023-03-20T21:51:15.253Z,71.00
2023-03-20T21:53:13.421Z,71.00
2023-03-20T21:55:05.988Z,71.00
2023-03-20T21:59:11.073Z,71.00
2023-03-20T22:02:29.942Z,71.00
2023-03-20T22:07:23.964Z,71.00
2023-03-20T22:09:20.220Z,71.00
2023-03-20T22:15:20.048Z,71.00
2023-03-20T22:19:18.011Z,71.00
2023-03-20T22:21:22.052Z,71.00
2023-03-20T22:23:18.304Z,71.00
2023-03-20T22:27:43.810Z,71.00
2023-03-20T22:31:40.937Z,71.00
2023-03-20T22:34:01.091Z,71.00
2023-03-20T22:38:00.500Z,71.00
2023-03-20T22:39:50.907Z,71.00
2023-03-20T22:43:48.715Z,71.00
2023-03-20T22:45:02.246Z,71.00
2023-03-20T22:46:56.604Z,71.00
2023-03-20T22:48:56.567Z,71.00
2023-03-20T22:50:56.416Z,71.00
2023-03-20T22:52:56.473Z,71.00
2023-03-20T22:54:56.498Z,71.00
2023-03-20T22:56:56.433Z,71.00
2023-03-20T22:58:56.427Z,71.00
2023-03-20T23:00:56.563Z,71.00
2023-03-20T23:03:06.661Z,71.00
2023-03-20T23:04:56.585Z,71.00
2023-03-20T23:06:56.444Z,71.00
2023-03-20T23:08:58.433Z,71.00
2023-03-20T23:10:56.441Z,71.00
2023-03-20T23:12:56.447Z,71.00
2023-03-20T23:14:56.496Z,71.00
2023-03-20T23:16:56.507Z,71.00
2023-03-20T23:18:56.503Z,71.00
2023-03-20T23:20:56.486Z,71.00
2023-03-20T23:22:56.656Z,71.00
2023-03-20T23:24:59.881Z,71.00
2023-03-20T23:26:56.438Z,72.00
2023-03-20T23:28:56.451Z,72.00
2023-03-20T23:31:09.445Z,72.00
2023-03-20T23:32:56.444Z,72.00
2023-03-20T23:34:56.469Z,72.00
2023-03-20T23:36:56.524Z,72.00
2023-03-20T23:38:56.458Z,72.00
2023-03-20T23:40:56.529Z,72.00
2023-03-20T23:42:56.538Z,72.00
2023-03-20T23:45:00.213Z,72.00
2023-03-20T23:46:56.558Z,72.00
2023-03-20T23:48:56.456Z,73.00
2023-03-20T23:50:56.485Z,73.00
2023-03-20T23:53:03.907Z,73.00
2023-03-20T23:54:56.531Z,73.00
2023-03-20T23:56:56.499Z,73.00
2023-03-20T23:59:03.232Z,73.00
